Time;durP1;ratioP1;P1;durP2;ratioP2;P2;SDS_P1;SDS_P2;PMS_P1;PMS_P2;Temp;Humidity;BMP_temperature;BMP_pressure;BME280_temperature;BME280_humidity;BME280_pressure;Samples;Min_cycle;Max_cycle;Signal;HPM_P1;HPM_P2
2021/11/14 00:02:20;;;;;;;25.53;15.77;;;;;;;4.75;100.00;98922.16;5038773;28;20040;-58
2021/11/14 00:04:46;;;;;;;29.13;16.27;;;;;;;4.76;100.00;98918.75;5036309;28;20032;-59
2021/11/14 00:07:17;;;;;;;27.80;17.07;;;;;;;4.82;100.00;98923.06;5036632;28;20582;-58
2021/11/14 00:09:43;;;;;;;27.87;17.33;;;;;;;4.78;100.00;98917.09;5040225;28;20033;-60
2021/11/14 00:12:11;;;;;;;25.93;16.00;;;;;;;4.80;100.00;98923.03;5038253;28;20797;-57
2021/11/14 00:14:36;;;;;;;27.20;14.87;;;;;;;4.70;100.00;98926.34;5036274;28;20049;-60
2021/11/14 00:17:02;;;;;;;24.77;14.53;;;;;;;4.74;100.00;98920.47;5038596;28;20471;-59
2021/11/14 00:19:28;;;;;;;25.03;15.33;;;;;;;4.70;100.00;98915.34;5039998;28;20499;-59
2021/11/14 00:21:53;;;;;;;24.57;14.40;;;;;;;4.68;100.00;98919.53;5038856;28;20033;-59
2021/11/14 00:24:19;;;;;;;24.37;14.57;;;;;;;4.69;100.00;98919.56;5037228;28;20033;-58
2021/11/14 00:26:44;;;;;;;19.67;13.40;;;;;;;4.74;100.00;98917.06;5035778;28;20037;-59
2021/11/14 00:29:11;;;;;;;19.43;12.70;;;;;;;4.73;100.00;98918.75;5038697;28;20308;-60
2021/11/14 00:31:38;;;;;;;23.33;13.43;;;;;;;4.70;100.00;98923.81;5036490;28;20040;-59
2021/11/14 00:34:05;;;;;;;22.97;14.37;;;;;;;4.70;100.00;98922.94;5036042;28;20557;-59
2021/11/14 00:36:36;;;;;;;23.77;12.83;;;;;;;4.74;100.00;98924.69;5037152;28;20030;-58
2021/11/14 00:39:04;;;;;;;22.67;13.80;;;;;;;4.72;100.00;98926.34;5039729;28;20029;-59
2021/11/14 00:41:30;;;;;;;28.43;15.87;;;;;;;4.74;100.00;98925.53;5035950;28;20483;-58
2021/11/14 00:43:55;;;;;;;67.30;30.90;;;;;;;4.76;100.00;98917.91;5036449;28;20063;-59
2021/11/14 00:46:21;;;;;;;38.23;20.70;;;;;;;4.82;100.00;98926.44;5036393;28;20041;-57
2021/11/14 00:48:46;;;;;;;28.50;15.37;;;;;;;4.84;100.00;98932.38;5036883;28;20055;-59
2021/11/14 00:51:15;;;;;;;23.80;12.93;;;;;;;4.86;100.00;98925.63;5035447;28;20546;-59
2021/11/14 00:53:41;;;;;;;21.53;12.47;;;;;;;4.83;100.00;98923.09;5036789;28;20040;-58
2021/11/14 00:56:06;;;;;;;20.60;13.00;;;;;;;4.83;100.00;98929.84;5037680;28;20029;-55
2021/11/14 00:58:32;;;;;;;21.90;13.60;;;;;;;4.80;100.00;98929.78;5038611;28;20047;-59
2021/11/14 01:00:58;;;;;;;26.33;14.83;;;;;;;4.74;100.00;98922.16;5037198;28;20044;-59
2021/11/14 01:03:24;;;;;;;33.13;17.50;;;;;;;4.75;100.00;98924.72;5036048;28;20090;-56
2021/11/14 01:05:50;;;;;;;31.23;17.10;;;;;;;4.78;100.00;98931.50;5036651;28;20498;-57
2021/11/14 01:08:16;;;;;;;37.53;20.90;;;;;;;4.79;100.00;98943.34;5038425;28;20071;-59
2021/11/14 01:10:46;;;;;;;21.80;12.27;;;;;;;4.87;100.00;98932.44;5035922;28;20029;-54
2021/11/14 01:13:13;;;;;;;20.90;11.23;;;;;;;4.85;100.00;98934.09;5035252;28;20368;-57
2021/11/14 01:15:39;;;;;;;20.87;12.43;;;;;;;4.88;100.00;98936.66;5036936;28;20021;-58
2021/11/14 01:18:05;;;;;;;18.93;10.80;;;;;;;4.84;100.00;98934.06;5039148;28;20502;-59
2021/11/14 01:20:34;;;;;;;23.80;16.33;;;;;;;4.86;100.00;98942.56;5034712;28;20161;-56
2021/11/14 01:23:02;;;;;;;20.57;13.57;;;;;;;4.86;100.00;98948.50;5035801;28;20029;-57
2021/11/14 01:25:27;;;;;;;30.33;18.27;;;;;;;4.78;100.00;98946.72;5038133;28;20087;-54
2021/11/14 01:27:53;;;;;;;27.77;16.50;;;;;;;4.80;100.00;98943.34;5037308;28;20037;-57
2021/11/14 01:30:22;;;;;;;21.20;11.87;;;;;;;4.84;100.00;98942.53;5034832;28;20642;-56
2021/11/14 01:32:48;;;;;;;20.90;12.37;;;;;;;4.84;100.00;98954.38;5037071;28;20052;-59
2021/11/14 01:35:15;;;;;;;18.17;10.80;;;;;;;4.77;100.00;98945.00;5039000;28;20026;-58
2021/11/14 01:37:42;;;;;;;20.47;12.23;;;;;;;4.74;100.00;98950.94;5036084;28;20072;-56
2021/11/14 01:40:12;;;;;;;20.07;12.03;;;;;;;4.76;100.00;98956.00;5039581;28;20431;-58
2021/11/14 01:42:39;;;;;;;20.87;12.67;;;;;;;4.72;100.00;98957.66;5035538;28;20056;-57
2021/11/14 01:45:06;;;;;;;17.43;11.00;;;;;;;4.74;100.00;98955.16;5040369;28;20021;-55
2021/11/14 01:47:32;;;;;;;20.10;10.87;;;;;;;4.70;100.00;98945.81;5035505;28;20040;-58
2021/11/14 01:49:58;;;;;;;24.63;12.93;;;;;;;4.63;100.00;98949.97;5037905;28;20418;-58
2021/11/14 01:52:29;;;;;;;22.87;12.60;;;;;;;4.70;100.00;98948.34;5044762;28;20036;-58
2021/11/14 01:54:54;;;;;;;26.17;15.17;;;;;;;4.57;100.00;98950.78;5034649;28;20035;-58
2021/11/14 01:57:21;;;;;;;24.07;13.87;;;;;;;4.56;100.00;98956.69;5040666;28;20059;-58
2021/11/14 01:59:46;;;;;;;20.83;12.77;;;;;;;4.58;100.00;98955.00;5038334;28;20029;-57
2021/11/14 02:02:13;;;;;;;21.73;13.23;;;;;;;4.57;100.00;98945.69;5035698;28;20040;-58
2021/11/14 02:04:41;;;;;;;20.17;13.60;;;;;;;4.58;100.00;98952.44;5035544;28;20037;-59
2021/11/14 02:07:07;;;;;;;23.87;14.93;;;;;;;4.60;100.00;98955.00;5033785;28;20032;-57
2021/11/14 02:09:35;;;;;;;21.27;13.60;;;;;;;4.54;100.00;98955.78;5039172;28;20529;-58
2021/11/14 02:12:04;;;;;;;22.83;14.63;;;;;;;4.47;100.00;98956.59;5037616;28;20179;-56
2021/11/14 02:14:30;;;;;;;26.43;15.90;;;;;;;4.49;100.00;98960.00;5039565;28;20483;-54
2021/11/14 02:16:56;;;;;;;29.43;16.17;;;;;;;4.52;100.00;98957.50;5036715;28;20365;-57
2021/11/14 02:19:21;;;;;;;21.77;13.07;;;;;;;4.42;100.00;98955.69;5033968;28;20048;-56
2021/11/14 02:21:47;;;;;;;27.40;14.33;;;;;;;4.40;100.00;98959.91;5037812;28;20544;-58
2021/11/14 02:24:13;;;;;;;26.17;15.23;;;;;;;4.36;100.00;98968.31;5038586;28;20025;-58
2021/11/14 02:26:38;;;;;;;28.97;14.07;;;;;;;4.39;100.00;98968.34;5035761;28;20074;-58
2021/11/14 02:29:04;;;;;;;27.97;15.63;;;;;;;4.35;100.00;98966.59;5038741;28;20195;-58
2021/11/14 02:31:29;;;;;;;29.53;16.80;;;;;;;4.30;100.00;98962.31;5036291;28;20036;-56
2021/11/14 02:33:56;;;;;;;29.90;15.73;;;;;;;4.36;100.00;98962.38;5037951;28;20063;-58
2021/11/14 02:36:24;;;;;;;28.40;15.33;;;;;;;4.29;100.00;98970.75;5035485;28;20401;-57
2021/11/14 02:38:49;;;;;;;29.43;15.90;;;;;;;4.28;100.00;98962.31;5034131;28;20034;-58
2021/11/14 02:41:15;;;;;;;27.00;14.67;;;;;;;4.21;100.00;98957.13;5034163;28;20456;-59
2021/11/14 02:43:43;;;;;;;29.73;14.87;;;;;;;4.31;100.00;98962.34;5034296;28;20415;-58
2021/11/14 02:46:09;;;;;;;25.83;13.70;;;;;;;4.35;100.00;98963.22;5035026;28;20419;-57
2021/11/14 02:48:35;;;;;;;25.23;11.73;;;;;;;4.34;100.00;98964.03;5035460;28;20035;-57
2021/11/14 02:51:03;;;;;;;17.73;10.57;;;;;;;4.39;100.00;98965.81;5035608;28;20037;-57
2021/11/14 02:53:28;;;;;;;22.17;13.03;;;;;;;4.34;100.00;98964.03;5037446;28;20029;-57
2021/11/14 02:55:55;;;;;;;23.23;11.90;;;;;;;4.44;100.00;98964.19;5034740;28;20034;-57
2021/11/14 02:58:21;;;;;;;20.57;11.33;;;;;;;4.47;100.00;98963.34;5037676;28;20025;-57
2021/11/14 03:01:05;;;;;;;17.67;10.83;;;;;;;4.48;100.00;98959.97;5035651;28;20032;-55
2021/11/14 03:03:31;;;;;;;22.70;12.43;;;;;;;4.44;100.00;98956.56;5038533;28;20033;-57
2021/11/14 03:05:58;;;;;;;20.27;11.97;;;;;;;4.45;100.00;98965.03;5034536;28;20352;-57
2021/11/14 03:08:23;;;;;;;19.47;11.60;;;;;;;4.44;100.00;98955.72;5036561;28;20029;-57
2021/11/14 03:10:49;;;;;;;19.77;10.57;;;;;;;4.43;100.00;98952.31;5036816;28;20029;-56
2021/11/14 03:13:19;;;;;;;17.97;10.87;;;;;;;4.46;100.00;98948.94;5031920;28;20387;-57
2021/11/14 03:15:49;;;;;;;18.77;11.10;;;;;;;4.46;100.00;98952.34;5030173;28;20025;-55
2021/11/14 03:18:15;;;;;;;24.47;12.73;;;;;;;4.47;100.00;98955.72;5034712;28;20123;-55
2021/11/14 03:20:43;;;;;;;20.50;11.87;;;;;;;4.49;100.00;98961.69;5035795;28;20057;-54
2021/11/14 03:23:10;;;;;;;23.47;12.07;;;;;;;4.48;100.00;98949.81;5031834;28;20052;-52
2021/11/14 03:25:36;;;;;;;21.07;12.73;;;;;;;4.44;100.00;98951.47;5034616;28;20033;-52
2021/11/14 03:28:03;;;;;;;25.43;13.57;;;;;;;4.41;100.00;98961.56;5035736;28;20044;-51
2021/11/14 03:30:32;;;;;;;24.90;13.03;;;;;;;4.42;100.00;98962.44;5034182;28;20025;-55
2021/11/14 03:32:58;;;;;;;23.00;13.63;;;;;;;4.44;100.00;98954.03;5030820;28;20044;-51
2021/11/14 03:35:24;;;;;;;26.43;15.37;;;;;;;4.53;100.00;98963.41;5033994;28;20026;-52
2021/11/14 03:37:50;;;;;;;22.80;12.53;;;;;;;4.52;100.00;98969.31;5033276;28;20368;-53
2021/11/14 03:40:17;;;;;;;26.70;14.33;;;;;;;4.47;100.00;98970.97;5033890;28;20043;-52
2021/11/14 03:42:43;;;;;;;20.67;12.40;;;;;;;4.53;100.00;98971.03;5030447;28;20054;-54
2021/11/14 03:45:09;;;;;;;23.27;13.20;;;;;;;4.56;100.00;98971.06;5033901;28;20112;-54
2021/11/14 03:47:38;;;;;;;23.87;14.13;;;;;;;4.56;100.00;98974.44;5033807;28;20450;-53
2021/11/14 03:50:04;;;;;;;24.17;14.00;;;;;;;4.50;100.00;98968.44;5034092;28;20385;-55
2021/11/14 03:52:30;;;;;;;26.47;14.00;;;;;;;4.49;100.00;98975.22;5032883;28;20506;-52
2021/11/14 03:54:55;;;;;;;25.80;12.90;;;;;;;4.47;100.00;98971.81;5032429;28;20628;-53
2021/11/14 03:57:21;;;;;;;27.37;15.03;;;;;;;4.53;100.00;98981.19;5036391;28;20108;-52
2021/11/14 03:59:46;;;;;;;22.70;13.30;;;;;;;4.52;100.00;98977.78;5031602;28;20087;-53
2021/11/14 04:02:11;;;;;;;27.50;14.07;;;;;;;4.49;100.00;98982.84;5033922;28;20116;-52
2021/11/14 04:04:37;;;;;;;26.20;15.20;;;;;;;4.45;100.00;98977.72;5031775;28;20025;-52
2021/11/14 04:07:03;;;;;;;26.10;13.57;;;;;;;4.41;100.00;98981.88;5031486;28;20033;-52
2021/11/14 04:09:28;;;;;;;26.80;14.87;;;;;;;4.46;100.00;98981.94;5032633;28;20025;-55
2021/11/14 04:11:54;;;;;;;25.93;14.17;;;;;;;4.44;100.00;98988.69;5033672;28;20037;-52
2021/11/14 04:14:19;;;;;;;26.40;14.03;;;;;;;4.51;100.00;98990.47;5033733;28;20065;-54
2021/11/14 04:16:45;;;;;;;25.33;14.10;;;;;;;4.50;100.00;98986.22;5036435;28;20057;-57
2021/11/14 04:19:11;;;;;;;24.97;13.83;;;;;;;4.52;100.00;98985.41;5032090;28;20087;-54
2021/11/14 04:21:38;;;;;;;24.40;13.80;;;;;;;4.40;100.00;98987.81;5032370;28;20057;-56
2021/11/14 04:24:04;;;;;;;22.40;13.23;;;;;;;4.42;100.00;98992.91;5033480;28;20083;-57
2021/11/14 04:26:29;;;;;;;25.50;13.30;;;;;;;4.40;100.00;99000.50;5034149;28;20111;-57
2021/11/14 04:28:54;;;;;;;27.13;13.00;;;;;;;4.42;100.00;98998.81;5030149;28;20037;-57
2021/11/14 04:31:21;;;;;;;23.33;14.23;;;;;;;4.42;100.00;98997.97;5032755;28;20040;-54
2021/11/14 04:33:46;;;;;;;25.67;13.57;;;;;;;4.38;100.00;98999.63;5032987;28;20025;-53
2021/11/14 04:36:12;;;;;;;23.20;13.70;;;;;;;4.35;100.00;98998.75;5035805;28;20036;-56
2021/11/14 04:38:37;;;;;;;23.50;13.23;;;;;;;4.41;100.00;98996.28;5035952;28;20025;-56
2021/11/14 04:41:04;;;;;;;22.33;12.17;;;;;;;4.40;100.00;98999.66;5032901;28;20044;-51
2021/11/14 04:43:30;;;;;;;19.90;11.03;;;;;;;4.38;100.00;99001.31;5033799;28;20053;-54
2021/11/14 04:45:55;;;;;;;19.07;11.70;;;;;;;4.40;100.00;99007.28;5037274;28;20044;-55
2021/11/14 04:48:23;;;;;;;21.27;11.67;;;;;;;4.39;100.00;99008.09;5036840;28;20037;-53
2021/11/14 04:50:50;;;;;;;22.07;12.50;;;;;;;4.40;100.00;99003.06;5035495;28;20447;-52
2021/11/14 04:53:15;;;;;;;22.57;12.03;;;;;;;4.35;100.00;99009.75;5039679;28;20029;-54
2021/11/14 04:55:41;;;;;;;19.77;11.13;;;;;;;4.32;100.00;99007.19;5033877;28;20094;-53
2021/11/14 04:58:08;;;;;;;17.93;11.77;;;;;;;4.32;100.00;99004.66;5036880;28;20072;-54
2021/11/14 05:00:39;;;;;;;20.87;11.90;;;;;;;4.38;100.00;99012.31;5036581;28;20029;-52
2021/11/14 05:03:05;;;;;;;19.87;11.43;;;;;;;4.35;100.00;99019.91;5037564;28;20605;-53
2021/11/14 05:05:33;;;;;;;19.63;11.93;;;;;;;4.37;100.00;99023.31;5034271;28;20620;-52
2021/11/14 05:07:59;;;;;;;21.93;11.53;;;;;;;4.43;100.00;99023.38;5035461;28;20020;-53
2021/11/14 05:10:25;;;;;;;20.43;10.67;;;;;;;4.36;100.00;99018.22;5038492;28;20472;-51
2021/11/14 05:12:50;;;;;;;17.17;11.17;;;;;;;4.39;100.00;99024.19;5039039;28;20160;-52
2021/11/14 05:15:16;;;;;;;16.73;10.30;;;;;;;4.43;100.00;99025.06;5038129;28;20037;-53
2021/11/14 05:17:41;;;;;;;23.27;12.23;;;;;;;4.43;100.00;99025.06;5035531;28;20025;-53
2021/11/14 05:20:10;;;;;;;18.67;11.83;;;;;;;4.39;100.00;99021.66;5036392;28;20033;-54
2021/11/14 05:22:35;;;;;;;20.37;11.27;;;;;;;4.47;100.00;99022.59;5039546;28;20031;-52
2021/11/14 05:25:00;;;;;;;19.77;11.40;;;;;;;4.52;100.00;99031.09;5038585;28;20498;-56
2021/11/14 05:27:26;;;;;;;18.60;11.37;;;;;;;4.55;100.00;99037.91;5036525;28;20037;-53
2021/11/14 05:29:52;;;;;;;21.20;11.27;;;;;;;4.46;100.00;99037.78;5040629;28;20059;-56
2021/11/14 05:32:17;;;;;;;18.17;9.67;;;;;;;4.59;100.00;99043.03;5039570;28;20406;-56
2021/11/14 05:34:42;;;;;;;19.93;10.80;;;;;;;4.52;100.00;99035.31;5040531;28;20028;-56
2021/11/14 05:37:08;;;;;;;21.13;11.10;;;;;;;4.58;100.00;99041.31;5035643;28;20059;-52
2021/11/14 05:39:34;;;;;;;14.53;10.80;;;;;;;4.54;100.00;99037.03;5039215;28;20061;-53
2021/11/14 05:42:00;;;;;;;18.73;10.97;;;;;;;4.54;100.00;99038.75;5037602;28;20099;-52
2021/11/14 05:44:25;;;;;;;15.53;10.33;;;;;;;4.52;100.00;99040.41;5037854;28;20053;-54
2021/11/14 05:46:51;;;;;;;16.10;11.07;;;;;;;4.56;100.00;99045.53;5037574;28;20068;-56
2021/11/14 05:49:17;;;;;;;17.97;10.07;;;;;;;4.58;100.00;99048.94;5039922;28;20557;-52
2021/11/14 05:51:42;;;;;;;15.27;9.53;;;;;;;4.45;100.00;99046.25;5039588;28;20038;-51
2021/11/14 05:54:09;;;;;;;18.83;10.10;;;;;;;4.46;100.00;99053.00;5035519;28;20056;-52
2021/11/14 05:56:34;;;;;;;15.53;9.97;;;;;;;4.45;100.00;99054.72;5034018;28;20079;-55
2021/11/14 06:01:43;;;;;;;18.73;10.82;;;;;;;4.48;100.00;99069.13;5040480;28;20044;-52
2021/11/14 06:04:31;;;;;;;22.08;11.07;;;;;;;4.41;100.00;99064.81;5033917;28;20475;-52
2021/11/14 06:06:57;;;;;;;18.70;10.53;;;;;;;4.42;100.00;99086.81;5034803;28;20049;-52
2021/11/14 06:09:22;;;;;;;18.87;10.27;;;;;;;4.45;100.00;99084.34;5039271;28;20451;-51
2021/11/14 06:11:48;;;;;;;19.40;11.10;;;;;;;4.49;100.00;99079.31;5037725;28;20051;-52
2021/11/14 06:14:14;;;;;;;16.00;10.53;;;;;;;4.58;100.00;99083.66;5035556;28;20075;-53
2021/11/14 06:16:39;;;;;;;17.83;10.43;;;;;;;4.63;100.00;99096.38;5032942;28;20029;-51
2021/11/14 06:19:05;;;;;;;19.20;11.17;;;;;;;4.63;100.00;99088.75;5037596;28;20025;-53
2021/11/14 06:21:30;;;;;;;18.07;10.80;;;;;;;4.64;100.00;99093.00;5036738;28;20629;-55
2021/11/14 06:23:55;;;;;;;20.13;10.70;;;;;;;4.62;100.00;99099.78;5037212;28;20037;-51
2021/11/14 06:26:23;;;;;;;18.17;9.83;;;;;;;4.54;100.00;99108.13;5034803;28;20041;-51
2021/11/14 06:28:49;;;;;;;18.83;10.87;;;;;;;4.58;100.00;99109.03;5036743;28;20147;-51
2021/11/14 06:31:15;;;;;;;17.17;10.10;;;;;;;4.56;100.00;99119.16;5036146;28;20653;-53
2021/11/14 06:33:41;;;;;;;19.60;10.30;;;;;;;4.56;100.00;99124.25;5033752;28;20140;-53
2021/11/14 06:36:06;;;;;;;18.73;10.63;;;;;;;4.65;100.00;99128.59;5036570;28;20029;-52
2021/11/14 06:38:32;;;;;;;16.17;10.17;;;;;;;4.53;100.00;99129.28;5034198;28;20039;-57
2021/11/14 06:40:57;;;;;;;16.43;9.53;;;;;;;4.55;100.00;99135.22;5036443;28;20034;-54
2021/11/14 06:43:23;;;;;;;18.63;9.97;;;;;;;4.62;100.00;99133.63;5035860;28;20068;-56
2021/11/14 06:45:48;;;;;;;17.63;9.17;;;;;;;4.66;100.00;99130.31;5037037;28;20032;-56
2021/11/14 06:48:14;;;;;;;16.10;9.83;;;;;;;4.65;100.00;99132.81;5033948;28;20038;-58
2021/11/14 06:50:40;;;;;;;16.70;9.90;;;;;;;4.68;100.00;99135.38;5033604;28;20045;-58
2021/11/14 06:53:05;;;;;;;17.07;11.23;;;;;;;4.68;100.00;99143.84;5034002;28;20088;-56
2021/11/14 06:55:31;;;;;;;16.77;9.87;;;;;;;4.69;100.00;99145.56;5039849;28;20036;-57
2021/11/14 06:57:57;;;;;;;18.73;9.47;;;;;;;4.64;100.00;99151.41;5038328;28;20029;-60
2021/11/14 07:00:25;;;;;;;15.87;9.37;;;;;;;4.61;100.00;99142.09;5037690;28;20013;-57
2021/11/14 07:02:50;;;;;;;17.20;9.23;;;;;;;4.55;100.00;99147.91;5034674;28;20640;-58
2021/11/14 07:05:16;;;;;;;15.17;9.17;;;;;;;4.56;100.00;99154.72;5039916;28;20028;-57
2021/11/14 07:07:42;;;;;;;14.17;8.63;;;;;;;4.66;100.00;99157.38;5039275;28;20214;-58
2021/11/14 07:10:10;;;;;;;17.83;9.73;;;;;;;4.64;100.00;99161.56;5038129;28;20032;-58
2021/11/14 07:12:36;;;;;;;14.97;9.27;;;;;;;4.67;100.00;99156.56;5036976;28;20044;-58
2021/11/14 07:15:04;;;;;;;17.43;9.73;;;;;;;4.74;100.00;99169.34;5039836;28;20044;-56
2021/11/14 07:17:30;;;;;;;16.87;8.47;;;;;;;4.77;100.00;99163.44;5034430;28;20041;-55
2021/11/14 07:19:58;;;;;;;14.50;9.63;;;;;;;4.82;100.00;99165.22;5031367;28;20617;-56
2021/11/14 07:22:24;;;;;;;14.87;8.97;;;;;;;4.78;100.00;99157.53;5036710;28;20060;-54
2021/11/14 07:24:49;;;;;;;16.47;10.20;;;;;;;4.90;100.00;99162.75;5039511;28;20053;-57
2021/11/14 07:27:15;;;;;;;17.87;10.73;;;;;;;4.87;100.00;99155.09;5037756;28;20025;-54
2021/11/14 07:29:40;;;;;;;18.50;11.33;;;;;;;4.96;100.00;99162.84;5035156;28;20033;-55
2021/11/14 07:32:06;;;;;;;16.07;11.37;;;;;;;4.92;100.00;99164.47;5037689;28;20037;-55
2021/11/14 07:34:32;;;;;;;14.50;9.20;;;;;;;5.00;100.00;99165.44;5037823;28;20083;-53
2021/11/14 07:36:58;;;;;;;12.07;7.63;;;;;;;5.05;100.00;99162.91;5038689;28;20029;-54
2021/11/14 07:39:23;;;;;;;15.00;9.20;;;;;;;5.07;100.00;99161.25;5037314;28;20064;-55
2021/11/14 07:41:49;;;;;;;15.20;9.83;;;;;;;5.02;100.00;99157.81;5035704;28;20021;-56
2021/11/14 07:44:15;;;;;;;15.50;9.30;;;;;;;5.05;100.00;99161.22;5035895;28;20111;-56
2021/11/14 07:46:40;;;;;;;15.97;9.80;;;;;;;5.13;100.00;99160.50;5036031;28;20824;-55
2021/11/14 07:49:05;;;;;;;10.40;7.10;;;;;;;5.20;100.00;99162.25;5034053;28;20041;-56
2021/11/14 07:51:31;;;;;;;11.37;7.43;;;;;;;5.19;100.00;99161.41;5036348;28;20024;-57
2021/11/14 07:53:59;;;;;;;12.17;7.80;;;;;;;5.13;100.00;99157.94;5035903;28;20108;-54
2021/11/14 07:56:24;;;;;;;13.23;7.50;;;;;;;5.04;100.00;99169.72;5039088;28;20079;-57
2021/11/14 07:58:50;;;;;;;12.73;7.23;;;;;;;5.12;100.00;99171.47;5033104;28;20029;-58
2021/11/14 08:01:15;;;;;;;22.03;10.07;;;;;;;5.14;100.00;99168.09;5039100;28;20044;-58
2021/11/14 08:03:41;;;;;;;21.37;9.63;;;;;;;5.20;100.00;99169.88;5036894;28;20029;-58
2021/11/14 08:06:07;;;;;;;23.57;10.63;;;;;;;5.32;100.00;99175.94;5036356;28;20035;-58
2021/11/14 08:08:32;;;;;;;15.03;8.17;;;;;;;5.27;100.00;99169.94;5033696;28;20108;-57
2021/11/14 08:10:58;;;;;;;16.10;8.07;;;;;;;5.44;100.00;99180.28;5033106;28;20033;-57
2021/11/14 08:13:24;;;;;;;16.43;9.20;;;;;;;5.37;100.00;99169.22;5034608;28;20112;-57
2021/11/14 08:15:50;;;;;;;13.50;8.50;;;;;;;5.33;100.00;99174.25;5033463;28;20899;-56
2021/11/14 08:18:17;;;;;;;15.90;9.20;;;;;;;5.35;100.00;99175.97;5032292;28;20120;-57
2021/11/14 08:20:43;;;;;;;12.00;8.23;;;;;;;5.29;100.00;99169.97;5035812;28;20030;-58
2021/11/14 08:23:08;;;;;;;9.97;6.70;;;;;;;5.36;100.00;99185.31;5036902;28;20037;-56
2021/11/14 08:25:35;;;;;;;12.03;7.40;;;;;;;5.42;100.00;99184.53;5036056;28;20072;-54
2021/11/14 08:28:02;;;;;;;10.37;6.90;;;;;;;5.55;100.00;99183.81;5033082;28;20107;-57
2021/11/14 08:30:28;;;;;;;12.43;7.60;;;;;;;5.67;100.00;99183.06;5038051;28;20036;-57
2021/11/14 08:32:53;;;;;;;12.67;7.43;;;;;;;5.63;100.00;99184.75;5039788;28;20029;-57
2021/11/14 08:35:20;;;;;;;11.67;7.80;;;;;;;5.65;100.00;99184.72;5035345;28;20093;-56
2021/11/14 08:37:49;;;;;;;11.10;7.10;;;;;;;5.40;100.00;99188.72;5037052;28;20431;-56
2021/11/14 08:40:15;;;;;;;15.07;7.47;;;;;;;5.45;100.00;99192.19;5038159;28;20036;-54
2021/11/14 08:42:41;;;;;;;15.97;8.60;;;;;;;5.44;100.00;99195.56;5037709;28;20434;-55
2021/11/14 08:45:08;;;;;;;18.70;10.67;;;;;;;5.61;100.00;99185.53;5036288;28;20029;-57
2021/11/14 08:47:34;;;;;;;22.30;12.13;;;;;;;5.67;100.00;99180.53;5036966;28;20112;-56
2021/11/14 08:49:59;;;;;;;20.67;11.10;;;;;;;5.77;100.00;99189.97;5037066;28;20137;-57
2021/11/14 08:52:25;;;;;;;19.07;10.10;;;;;;;5.85;100.00;99184.09;5035190;28;20033;-53
2021/11/14 08:54:51;;;;;;;20.13;12.77;;;;;;;5.93;100.00;99191.81;5033691;28;20021;-55
2021/11/14 08:57:18;;;;;;;20.37;11.03;;;;;;;5.97;100.00;99198.66;5035789;28;20032;-56
2021/11/14 08:59:44;;;;;;;20.10;12.40;;;;;;;5.91;100.00;99196.03;5038285;28;20033;-57
2021/11/14 09:02:10;;;;;;;19.90;11.67;;;;;;;6.03;100.00;99202.91;5035532;28;20156;-56
2021/11/14 09:04:35;;;;;;;22.47;12.00;;;;;;;6.11;100.00;99206.41;5033576;28;20122;-55
2021/11/14 09:07:01;;;;;;;22.77;11.87;;;;;;;6.18;100.00;99213.22;5034904;28;20565;-55
2021/11/14 09:09:27;;;;;;;19.30;12.73;;;;;;;6.20;100.00;99202.22;5037734;28;20021;-55
2021/11/14 09:11:53;;;;;;;22.70;13.20;;;;;;;6.21;100.00;99209.00;5035742;28;20056;-58
2021/11/14 09:14:19;;;;;;;25.67;16.03;;;;;;;6.28;100.00;99213.28;5035845;28;20969;-57
2021/11/14 09:16:46;;;;;;;23.93;13.63;;;;;;;6.26;100.00;99214.13;5036669;28;20057;-56
2021/11/14 09:19:11;;;;;;;23.50;12.73;;;;;;;6.31;100.00;99220.13;5034134;28;20203;-57
2021/11/14 09:21:38;;;;;;;24.77;12.97;;;;;;;6.37;100.00;99221.00;5033941;28;20481;-58
2021/11/14 09:24:05;;;;;;;24.93;13.20;;;;;;;6.37;100.00;99215.06;5035298;28;20021;-58
2021/11/14 09:26:31;;;;;;;20.83;12.13;;;;;;;6.29;100.00;99214.16;5037197;28;20476;-56
2021/11/14 09:28:56;;;;;;;25.80;13.57;;;;;;;6.28;100.00;99208.19;5036148;28;20021;-54
2021/11/14 09:31:22;;;;;;;21.87;11.23;;;;;;;6.11;100.00;99206.41;5033924;28;20056;-56
2021/11/14 09:33:47;;;;;;;24.03;13.00;;;;;;;5.79;100.00;99200.97;5037093;28;20052;-54
2021/11/14 09:36:13;;;;;;;23.17;11.87;;;;;;;5.80;100.00;99206.09;5038083;28;20037;-56
2021/11/14 09:38:39;;;;;;;23.10;11.70;;;;;;;5.68;100.00;99205.13;5042239;28;20026;-57
2021/11/14 09:41:08;;;;;;;21.67;11.87;;;;;;;5.75;100.00;99202.66;5037142;28;20068;-57
2021/11/14 09:43:35;;;;;;;19.30;11.63;;;;;;;5.88;100.00;99201.09;5040828;28;20088;-55
2021/11/14 09:46:01;;;;;;;20.17;11.33;;;;;;;5.93;100.00;99205.41;5039243;28;20970;-57
2021/11/14 09:48:27;;;;;;;18.13;11.10;;;;;;;6.04;100.00;99204.63;5041144;28;20033;-57
2021/11/14 09:50:57;;;;;;;18.77;12.67;;;;;;;6.12;100.00;99210.63;5036856;28;20029;-57
2021/11/14 09:53:28;;;;;;;21.00;12.80;;;;;;;6.21;100.00;99208.16;5037737;28;20034;-54
2021/11/14 09:55:55;;;;;;;22.13;12.30;;;;;;;6.25;100.00;99213.28;5042085;28;20110;-55
2021/11/14 09:58:21;;;;;;;20.50;12.33;;;;;;;6.33;100.00;99211.66;5038254;28;20037;-57
2021/11/14 10:00:47;;;;;;;19.47;10.67;;;;;;;6.37;100.00;99215.91;5040375;28;20025;-56
2021/11/14 10:03:13;;;;;;;22.07;13.00;;;;;;;6.25;100.00;99212.44;5036314;28;20029;-56
2021/11/14 10:05:39;;;;;;;18.67;11.43;;;;;;;6.26;100.00;99217.53;5040664;28;20481;-56
2021/11/14 10:08:06;;;;;;;20.10;11.57;;;;;;;6.17;100.00;99222.56;5038387;28;20033;-57
2021/11/14 10:10:38;;;;;;;20.50;11.23;;;;;;;6.17;100.00;99212.38;5033602;28;20399;-55
2021/11/14 10:13:11;;;;;;;20.27;11.30;;;;;;;6.27;100.00;99213.31;5038588;28;20048;-59
2021/11/14 10:15:37;;;;;;;21.30;12.90;;;;;;;6.28;100.00;99213.28;5037317;28;20025;-57
2021/11/14 10:18:06;;;;;;;24.37;13.97;;;;;;;6.28;100.00;99213.28;5038346;28;20040;-57
2021/11/14 10:20:35;;;;;;;20.53;11.47;;;;;;;6.18;100.00;99214.09;5033250;28;20037;-54
2021/11/14 10:23:11;;;;;;;21.40;10.83;;;;;;;6.18;100.00;99209.00;5037395;28;20040;-54
2021/11/14 10:25:37;;;;;;;21.70;11.73;;;;;;;6.21;100.00;99211.56;5038689;28;20033;-54
2021/11/14 10:28:04;;;;;;;22.53;13.20;;;;;;;6.23;100.00;99202.25;5033697;28;20025;-57
2021/11/14 10:30:33;;;;;;;23.53;12.33;;;;;;;6.18;100.00;99198.81;5036222;28;20029;-57
2021/11/14 10:33:05;;;;;;;21.10;12.87;;;;;;;6.12;100.00;99203.84;5034809;28;20185;-57
2021/11/14 10:35:32;;;;;;;23.87;12.73;;;;;;;6.02;100.00;99206.31;5034712;28;20448;-58
2021/11/14 10:38:00;;;;;;;21.30;11.63;;;;;;;5.91;100.00;99208.75;5035079;28;20046;-54
2021/11/14 10:40:29;;;;;;;20.37;11.93;;;;;;;5.79;100.00;99203.53;5035588;28;20029;-56
2021/11/14 10:42:57;;;;;;;25.00;13.93;;;;;;;5.81;100.00;99202.69;5036613;28;20049;-55
2021/11/14 10:45:23;;;;;;;25.83;15.47;;;;;;;5.95;100.00;99210.47;5038720;28;20025;-56
2021/11/14 10:47:58;;;;;;;25.57;16.60;;;;;;;6.13;100.00;99207.25;5035597;28;20054;-58
2021/11/14 10:50:28;;;;;;;22.80;13.30;;;;;;;6.28;100.00;99218.38;5036357;28;20025;-57
2021/11/14 10:52:59;;;;;;;27.37;15.10;;;;;;;6.41;100.00;99211.69;5036548;28;20256;-57
2021/11/14 10:55:28;;;;;;;45.73;27.57;;;;;;;6.51;100.00;99207.50;5034232;28;20163;-57
2021/11/14 10:57:53;;;;;;;26.83;15.40;;;;;;;6.47;100.00;99208.34;5038418;28;20041;-56
2021/11/14 11:00:23;;;;;;;24.80;13.20;;;;;;;6.45;100.00;99194.75;5037124;28;20056;-57
2021/11/14 11:02:48;;;;;;;23.33;12.10;;;;;;;6.32;100.00;99202.28;5038969;28;20055;-57
2021/11/14 11:05:24;;;;;;;18.27;12.03;;;;;;;6.42;100.00;99214.25;5035307;28;20030;-56
2021/11/14 11:07:57;;;;;;;23.57;13.73;;;;;;;6.28;100.00;99212.47;5035855;28;20040;-53
2021/11/14 11:10:35;;;;;;;22.93;12.80;;;;;;;6.14;100.00;99209.81;5036277;28;20033;-58
2021/11/14 11:13:02;;;;;;;22.30;12.33;;;;;;;5.97;100.00;99211.38;5038530;28;20071;-57
2021/11/14 11:15:36;;;;;;;22.83;11.60;;;;;;;5.92;100.00;99208.78;5035750;28;20064;-56
2021/11/14 11:18:05;;;;;;;20.83;11.20;;;;;;;5.96;100.00;99214.75;5035786;28;20044;-58
2021/11/14 11:20:30;;;;;;;25.93;14.33;;;;;;;5.90;100.00;99213.00;5039263;28;20379;-57